Time;durP1;ratioP1;P1;durP2;ratioP2;P2;SDS_P1;SDS_P2;PMS_P1;PMS_P2;Temp;Humidity;BMP_temperature;BMP_pressure;BME280_temperature;BME280_humidity;BME280_pressure;Samples;Min_cycle;Max_cycle;Signal;HPM_P1;HPM_P2
2023/01/04 00:01:24;;;;;;;6.50;5.90;;;;;;;5.75;100.00;100765.34;6258120;23;20275;-82
2023/01/04 00:03:50;;;;;;;6.43;5.83;;;;;;;5.72;100.00;100759.53;6231795;23;20212;-82
2023/01/04 00:06:18;;;;;;;6.53;5.87;;;;;;;5.75;100.00;100760.03;6078161;23;20208;-81
2023/01/04 00:08:45;;;;;;;6.53;5.83;;;;;;;5.67;100.00;100761.84;6104311;23;20224;-81
2023/01/04 00:11:20;;;;;;;6.93;6.07;;;;;;;5.56;100.00;100751.47;6053386;23;20212;-81
2023/01/04 00:13:49;;;;;;;7.67;6.63;;;;;;;5.54;100.00;100754.31;6098114;23;20207;-82
2023/01/04 00:16:21;;;;;;;7.20;6.30;;;;;;;5.50;100.00;100752.16;6106310;23;20212;-81
2023/01/04 00:18:48;;;;;;;6.83;6.00;;;;;;;5.41;100.00;100753.94;6069088;23;20767;-81
2023/01/04 00:21:19;;;;;;;7.50;6.67;;;;;;;5.45;100.00;100751.78;6106561;23;20672;-81
2023/01/04 00:23:47;;;;;;;6.90;6.20;;;;;;;5.42;100.00;100752.09;6082386;23;20283;-81
2023/01/04 00:26:18;;;;;;;6.80;6.10;;;;;;;5.32;100.00;100753.03;6105656;23;20212;-81
2023/01/04 00:28:45;;;;;;;7.70;6.67;;;;;;;5.28;100.00;100750.84;6107299;23;20214;-81
2023/01/04 00:31:20;;;;;;;6.97;6.27;;;;;;;5.31;100.00;100746.09;6081654;23;20209;-81
2023/01/04 00:33:47;;;;;;;7.10;6.40;;;;;;;5.32;100.00;100754.84;6075993;23;20208;-79
2023/01/04 00:36:14;;;;;;;6.80;6.10;;;;;;;5.27;100.00;100757.19;6092842;23;20216;-80
2023/01/04 00:38:41;;;;;;;7.10;6.40;;;;;;;5.23;100.00;100753.16;6067494;23;20293;-80
2023/01/04 00:41:09;;;;;;;7.10;6.40;;;;;;;5.19;100.00;100757.13;6095624;23;20700;-80
2023/01/04 00:43:53;;;;;;;6.47;5.87;;;;;;;5.14;100.00;100756.75;6095715;23;20219;-80
2023/01/04 00:46:20;;;;;;;7.93;6.20;;;;;;;5.14;100.00;100762.91;6076537;23;20236;-80
2023/01/04 00:48:47;;;;;;;7.97;6.60;;;;;;;5.08;100.00;100755.59;6073289;23;20212;-80
2023/01/04 00:51:14;;;;;;;8.83;7.37;;;;;;;5.16;100.00;100755.63;6094442;23;20530;-80
2023/01/04 00:53:41;;;;;;;7.90;7.10;;;;;;;5.12;100.00;100751.63;6094344;23;20605;-80
2023/01/04 00:56:07;;;;;;;7.97;7.13;;;;;;;5.07;100.00;100753.06;6094377;23;20216;-80
2023/01/04 00:58:34;;;;;;;9.10;7.50;;;;;;;5.10;100.00;100753.59;6093833;23;20295;-79
2023/01/04 01:01:05;;;;;;;9.07;7.27;;;;;;;5.10;100.00;100755.41;6093712;23;20214;-80
2023/01/04 01:03:32;;;;;;;8.10;7.30;;;;;;;5.19;100.00;100765.09;6093729;23;20242;-80
2023/01/04 01:06:06;;;;;;;7.60;6.80;;;;;;;5.18;100.00;100763.44;6188538;23;20217;-80
2023/01/04 01:08:33;;;;;;;7.93;7.03;;;;;;;5.19;100.00;100768.59;6246471;23;20546;-80
2023/01/04 01:11:05;;;;;;;9.47;7.50;;;;;;;5.18;100.00;100764.25;6246614;23;20201;-81
2023/01/04 01:13:33;;;;;;;8.17;7.03;;;;;;;5.18;100.00;100769.56;6248376;23;20246;-80
2023/01/04 01:16:07;;;;;;;9.40;7.97;;;;;;;5.16;100.00;100766.25;6207724;23;20219;-80
2023/01/04 01:18:34;;;;;;;9.30;7.53;;;;;;;5.16;100.00;100765.41;6220623;23;20204;-79
2023/01/04 01:21:08;;;;;;;8.53;7.60;;;;;;;5.17;100.00;100773.25;6247660;23;20211;-80
2023/01/04 01:23:35;;;;;;;8.23;7.43;;;;;;;5.19;100.00;100773.06;6220426;23;20522;-80
2023/01/04 01:26:04;;;;;;;7.47;6.50;;;;;;;5.15;100.00;100764.59;6247597;23;20203;-79
2023/01/04 01:28:32;;;;;;;8.23;6.97;;;;;;;5.09;100.00;100772.31;6247334;23;20223;-80
2023/01/04 01:30:59;;;;;;;7.93;6.80;;;;;;;5.03;100.00;100780.94;6193527;23;20268;-80
2023/01/04 01:33:41;;;;;;;8.00;6.83;;;;;;;5.00;100.00;100781.25;6210671;23;20529;-80
2023/01/04 01:36:08;;;;;;;7.87;7.07;;;;;;;4.98;100.00;100777.91;6245767;23;20208;-80
2023/01/04 01:38:36;;;;;;;8.07;7.27;;;;;;;4.92;100.00;100787.34;6221952;23;20209;-80
2023/01/04 01:41:03;;;;;;;7.80;7.00;;;;;;;4.83;100.00;100777.66;6248356;23;20657;-80
2023/01/04 01:43:45;;;;;;;7.40;6.70;;;;;;;4.82;100.00;100782.13;6248098;23;20207;-79
2023/01/04 01:46:12;;;;;;;8.97;7.27;;;;;;;4.85;100.00;100781.81;6247624;23;20212;-80
2023/01/04 01:48:39;;;;;;;8.00;7.20;;;;;;;4.75;100.00;100780.25;6220984;23;20688;-81
2023/01/04 01:51:05;;;;;;;8.13;7.33;;;;;;;4.69;100.00;100780.84;6260692;23;20232;-81
2023/01/04 01:53:38;;;;;;;7.60;6.90;;;;;;;4.58;100.00;100778.44;6260862;23;20206;-81
2023/01/04 01:56:07;;;;;;;7.80;7.00;;;;;;;4.50;100.00;100773.91;6224435;23;20213;-79
2023/01/04 01:58:37;;;;;;;11.17;7.53;;;;;;;4.43;100.00;100771.00;6250655;23;20303;-80
2023/01/04 02:01:04;;;;;;;8.93;7.23;;;;;;;4.38;100.00;100761.84;6221949;23;20209;-80
2023/01/04 02:03:41;;;;;;;7.97;7.17;;;;;;;4.29;100.00;100768.09;6247822;23;20661;-81
2023/01/04 02:06:11;;;;;;;9.17;7.93;;;;;;;4.38;100.00;100756.56;6251200;23;20241;-80
2023/01/04 02:08:39;;;;;;;8.90;7.97;;;;;;;4.31;100.00;100751.00;6252851;23;20280;-80
2023/01/04 02:11:06;;;;;;;9.77;8.57;;;;;;;4.33;100.00;100756.19;6253153;23;20231;-81
2023/01/04 02:16:39;;;;;;;9.37;7.73;;;;;;;4.26;100.00;100755.09;6232160;23;20247;-81
2023/01/04 02:19:21;;;;;;;8.80;7.60;;;;;;;4.29;100.00;100763.56;6253733;23;20657;-81
2023/01/04 02:21:57;;;;;;;7.80;7.00;;;;;;;4.23;100.00;100760.72;6221512;23;20287;-80
2023/01/04 02:24:39;;;;;;;9.90;8.90;;;;;;;4.30;100.00;100752.00;6221367;23;20208;-79
2023/01/04 02:27:19;;;;;;;10.67;9.13;;;;;;;4.48;100.00;100751.97;6220177;23;20243;-80
2023/01/04 02:30:00;;;;;;;10.33;9.20;;;;;;;4.53;100.00;100748.84;6248213;23;20295;-80
2023/01/04 02:32:32;;;;;;;11.67;9.17;;;;;;;4.62;100.00;100745.31;6182028;23;20203;-79
2023/01/04 02:35:01;;;;;;;11.13;9.00;;;;;;;5.06;100.00;100749.59;6246045;23;20689;-80
2023/01/04 02:37:43;;;;;;;9.63;8.63;;;;;;;4.95;100.00;100741.88;6247770;23;20271;-80
2023/01/04 02:40:20;;;;;;;12.13;9.53;;;;;;;5.00;100.00;100741.41;6231343;23;20288;-80
2023/01/04 02:46:24;;;;;;;9.23;8.10;;;;;;;4.89;100.00;100745.16;6215755;23;20209;-81
2023/01/04 02:51:37;;;;;;;8.63;7.73;;;;;;;4.74;100.00;100739.59;6247094;23;20208;-80
2023/01/04 02:54:10;;;;;;;8.03;7.30;;;;;;;4.62;100.00;100735.50;6219900;23;20200;-80
2023/01/04 02:56:59;;;;;;;8.90;8.03;;;;;;;4.51;100.00;100742.88;6247260;23;20209;-80
2023/01/04 02:59:41;;;;;;;8.87;7.43;;;;;;;4.42;100.00;100736.69;6247150;23;20216;-80
2023/01/04 03:08:55;;;;;;;10.30;9.13;;;;;;;4.03;100.00;100725.53;6246483;23;20253;-79
2023/01/04 03:14:13;;;;;;;11.80;10.20;;;;;;;3.79;100.00;100718.16;6223842;23;20215;-81
2023/01/04 03:17:01;;;;;;;11.53;10.43;;;;;;;3.74;100.00;100724.91;6224763;23;20263;-80
2023/01/04 03:36:18;;;;;;;9.10;8.17;;;;;;;3.07;100.00;100708.38;6244268;23;20228;-80
2023/01/04 03:50:51;;;;;;;8.73;7.47;;;;;;;2.64;100.00;100705.44;6253965;23;20227;-82
2023/01/04 03:53:18;;;;;;;10.03;8.03;;;;;;;2.56;100.00;100702.69;6253124;23;20208;-83
2023/01/04 03:55:45;;;;;;;8.70;7.67;;;;;;;2.52;100.00;100703.94;6201217;23;20211;-81
2023/01/04 03:58:12;;;;;;;8.43;7.50;;;;;;;2.46;100.00;100712.44;6251818;23;20212;-83
2023/01/04 04:00:39;;;;;;;9.83;7.80;;;;;;;2.46;100.00;100701.84;6225468;23;20227;-82
2023/01/04 04:03:06;;;;;;;8.93;7.80;;;;;;;2.29;100.00;100703.38;6243939;23;20215;-79
2023/01/04 04:08:28;;;;;;;10.20;8.57;;;;;;;2.15;100.00;100711.75;6246834;23;20260;-80
2023/01/04 04:11:28;;;;;;;10.27;8.47;;;;;;;2.04;100.00;100698.69;6220494;23;20201;-79
2023/01/04 04:13:47;;;;;;;10.43;8.63;;;;;;;1.97;100.00;100698.38;6223268;23;20599;-79
2023/01/04 04:16:14;;;;;;;9.53;8.57;;;;;;;1.92;100.00;100695.31;6244637;23;20284;-79
2023/01/04 04:18:41;;;;;;;11.90;9.53;;;;;;;1.90;100.00;100705.22;6218598;23;20295;-79
2023/01/04 04:21:08;;;;;;;10.60;9.07;;;;;;;1.85;100.00;100698.66;6218651;23;20246;-79
2023/01/04 04:23:34;;;;;;;11.43;9.37;;;;;;;1.87;100.00;100694.09;6245290;23;20204;-79
2023/01/04 04:26:01;;;;;;;10.90;9.73;;;;;;;1.85;100.00;100701.31;6244358;23;20208;-78
2023/01/04 04:28:28;;;;;;;11.17;9.20;;;;;;;1.82;100.00;100698.97;6243318;23;20201;-79
2023/01/04 04:30:54;;;;;;;10.13;9.07;;;;;;;1.80;100.00;100699.09;6244935;23;20209;-79
2023/01/04 04:33:21;;;;;;;10.60;9.50;;;;;;;1.83;100.00;100698.78;6244611;23;20288;-79
2023/01/04 04:35:52;;;;;;;10.57;9.47;;;;;;;1.86;100.00;100701.19;6244964;23;20283;-79
2023/01/04 04:38:19;;;;;;;9.53;8.53;;;;;;;1.80;100.00;100707.00;6218097;23;20204;-79
2023/01/04 04:43:33;;;;;;;9.90;8.43;;;;;;;1.74;100.00;100700.47;6222631;23;20204;-79
2023/01/04 04:46:00;;;;;;;9.53;8.53;;;;;;;1.70;100.00;100695.59;6217961;23;20215;-79
2023/01/04 04:48:26;;;;;;;9.47;8.53;;;;;;;1.67;100.00;100701.16;6243013;23;20211;-79
2023/01/04 04:50:53;;;;;;;9.93;8.93;;;;;;;1.77;100.00;100694.09;6244975;23;20201;-79
2023/01/04 04:53:20;;;;;;;9.87;8.87;;;;;;;1.66;100.00;100694.19;6218390;23;20209;-79
2023/01/04 04:55:49;;;;;;;9.00;8.13;;;;;;;1.63;100.00;100700.56;6244818;23;20287;-78
2023/01/04 04:58:16;;;;;;;9.23;8.27;;;;;;;1.61;100.00;100704.34;6215823;23;20228;-79
2023/01/04 05:00:43;;;;;;;9.10;8.20;;;;;;;1.55;100.00;100699.59;6218512;23;20212;-79
2023/01/04 05:03:10;;;;;;;9.27;8.27;;;;;;;1.48;100.00;100703.75;6244849;23;20213;-79
2023/01/04 05:05:36;;;;;;;10.43;8.30;;;;;;;1.46;100.00;100698.59;6244113;23;20200;-79
2023/01/04 05:08:03;;;;;;;8.93;8.13;;;;;;;1.38;100.00;100701.09;6244016;23;20552;-78
2023/01/04 05:10:30;;;;;;;9.13;8.23;;;;;;;1.40;100.00;100696.50;6244539;23;20283;-79
2023/01/04 05:12:59;;;;;;;8.97;7.70;;;;;;;1.37;100.00;100688.84;6244540;23;20231;-79
2023/01/04 05:15:28;;;;;;;8.60;7.70;;;;;;;1.44;100.00;100691.78;6244460;23;20204;-79
2023/01/04 05:17:55;;;;;;;8.30;7.50;;;;;;;1.43;100.00;100688.31;6244672;23;20205;-79
2023/01/04 05:20:21;;;;;;;8.57;7.70;;;;;;;1.48;100.00;100695.84;6244019;23;20279;-79
2023/01/04 05:22:48;;;;;;;9.50;8.60;;;;;;;1.49;100.00;100686.94;6244732;23;20205;-79
2023/01/04 05:25:15;;;;;;;10.87;9.37;;;;;;;1.43;100.00;100685.69;6217626;23;20649;-79
2023/01/04 05:27:42;;;;;;;8.97;7.60;;;;;;;1.44;100.00;100690.00;6244224;23;20232;-79
2023/01/04 05:32:57;;;;;;;7.47;6.77;;;;;;;1.38;100.00;100689.69;6218758;23;20208;-79
2023/01/04 05:35:24;;;;;;;7.43;6.73;;;;;;;1.33;100.00;100693.56;6216306;23;20209;-79
2023/01/04 05:37:51;;;;;;;7.17;6.33;;;;;;;1.29;100.00;100694.81;6244454;23;20605;-79
2023/01/04 05:40:18;;;;;;;7.13;6.43;;;;;;;1.25;100.00;100693.41;6217020;23;20207;-79
2023/01/04 05:42:44;;;;;;;7.00;6.10;;;;;;;1.13;100.00;100694.47;6244462;23;20704;-79
2023/01/04 05:45:12;;;;;;;6.80;6.20;;;;;;;1.16;100.00;100694.22;6244520;23;20311;-79
2023/01/04 05:47:39;;;;;;;6.83;6.13;;;;;;;1.24;100.00;100690.91;6217410;23;20227;-79
2023/01/04 05:50:07;;;;;;;6.37;5.53;;;;;;;1.29;100.00;100691.34;6240469;23;20208;-79
2023/01/04 05:52:34;;;;;;;6.17;5.53;;;;;;;1.25;100.00;100679.38;6244085;23;20208;-79
2023/01/04 05:55:01;;;;;;;7.50;5.70;;;;;;;1.24;100.00;100682.97;6217772;23;20232;-79
2023/01/04 05:57:27;;;;;;;6.40;5.80;;;;;;;1.15;100.00;100681.16;6244177;23;20231;-79
2023/01/04 05:59:54;;;;;;;6.37;5.77;;;;;;;1.15;100.00;100673.22;6244437;23;20263;-79
2023/01/04 06:02:23;;;;;;;5.90;5.40;;;;;;;1.04;100.00;100666.22;6243919;23;20255;-79
2023/01/04 06:04:50;;;;;;;6.63;5.93;;;;;;;1.04;100.00;100671.50;6244124;23;20231;-79
2023/01/04 06:07:24;;;;;;;6.40;5.80;;;;;;;1.12;100.00;100671.66;6244223;23;20213;-79
2023/01/04 06:09:50;;;;;;;6.37;5.77;;;;;;;1.14;100.00;100669.75;6244321;23;20669;-79
2023/01/04 06:12:17;;;;;;;7.87;5.83;;;;;;;1.12;100.00;100663.75;6218066;23;20192;-79
2023/01/04 06:14:43;;;;;;;6.33;5.73;;;;;;;1.08;100.00;100661.50;6243951;23;20687;-79
2023/01/04 06:17:10;;;;;;;6.60;6.00;;;;;;;1.13;100.00;100668.06;6244306;23;20215;-79
2023/01/04 06:19:37;;;;;;;6.53;5.37;;;;;;;1.18;100.00;100667.66;6244001;23;20224;-79
2023/01/04 06:22:03;;;;;;;7.23;6.53;;;;;;;1.21;100.00;100670.06;6243809;23;20291;-79
2023/01/04 06:24:30;;;;;;;6.27;5.60;;;;;;;1.23;100.00;100663.66;6246104;23;20220;-79
2023/01/04 06:26:57;;;;;;;6.07;5.23;;;;;;;1.13;100.00;100668.06;6246236;23;20288;-79
2023/01/04 06:29:23;;;;;;;5.70;5.20;;;;;;;1.10;100.00;100673.63;6245946;23;20212;-79
2023/01/04 06:31:50;;;;;;;5.33;4.83;;;;;;;1.04;100.00;100676.78;6246066;23;20205;-79
2023/01/04 06:34:17;;;;;;;6.07;5.10;;;;;;;1.03;100.00;100675.13;6216125;23;20208;-79
2023/01/04 06:36:43;;;;;;;5.57;5.07;;;;;;;1.02;100.00;100677.91;6246245;23;20211;-79
2023/01/04 06:39:10;;;;;;;5.83;5.23;;;;;;;0.99;100.00;100663.16;6246032;23;20225;-79
2023/01/04 06:41:37;;;;;;;7.50;5.80;;;;;;;0.95;100.00;100668.84;6246358;23;20208;-79
2023/01/04 06:44:03;;;;;;;6.10;5.50;;;;;;;0.97;100.00;100675.66;6246163;23;20188;-79
2023/01/04 06:46:30;;;;;;;6.43;5.87;;;;;;;0.95;100.00;100668.84;6246229;23;20196;-79
2023/01/04 06:48:57;;;;;;;6.23;5.63;;;;;;;0.93;100.00;100668.16;6245697;23;20650;-79
2023/01/04 06:51:23;;;;;;;6.93;5.20;;;;;;;0.85;100.00;100660.88;6245933;23;20284;-78
2023/01/04 06:53:50;;;;;;;5.90;5.00;;;;;;;0.81;100.00;100670.03;6245910;23;20204;-79
2023/01/04 06:56:17;;;;;;;5.70;5.20;;;;;;;0.81;100.00;100662.94;6245314;23;20660;-79
2023/01/04 06:58:43;;;;;;;6.60;5.20;;;;;;;0.86;100.00;100668.66;6245927;23;20201;-79
2023/01/04 07:01:10;;;;;;;5.00;4.50;;;;;;;0.81;100.00;100662.94;6245878;23;20204;-79
2023/01/04 07:03:37;;;;;;;5.80;5.20;;;;;;;0.84;100.00;100669.78;6245984;23;20692;-79
2023/01/04 07:06:05;;;;;;;5.77;5.17;;;;;;;0.86;100.00;100665.19;6245068;23;20284;-78
2023/01/04 07:08:32;;;;;;;5.77;4.70;;;;;;;0.81;100.00;100668.22;6217985;23;20555;-79
2023/01/04 07:10:59;;;;;;;5.30;4.80;;;;;;;0.83;100.00;100668.09;6219455;23;20211;-79
2023/01/04 07:13:26;;;;;;;5.70;5.13;;;;;;;0.84;100.00;100659.22;6245786;23;20228;-79
2023/01/04 07:15:52;;;;;;;5.57;4.60;;;;;;;0.88;100.00;100665.91;6246031;23;20211;-79
2023/01/04 07:18:19;;;;;;;5.50;5.00;;;;;;;0.92;100.00;100658.56;6245143;23;20201;-78
2023/01/04 07:20:46;;;;;;;5.27;4.77;;;;;;;0.92;100.00;100663.84;6245532;23;20209;-79
2023/01/04 07:23:12;;;;;;;5.83;4.90;;;;;;;0.98;100.00;100658.03;6245358;23;20212;-79
2023/01/04 07:25:39;;;;;;;5.10;4.60;;;;;;;1.02;100.00;100662.06;6245892;23;20275;-79
2023/01/04 07:28:05;;;;;;;4.83;4.33;;;;;;;1.07;100.00;100663.34;6244890;23;20518;-78
2023/01/04 07:30:32;;;;;;;5.47;4.60;;;;;;;1.16;100.00;100659.06;6244376;23;20264;-79
2023/01/04 07:32:59;;;;;;;5.57;5.07;;;;;;;1.22;100.00;100661.16;6245533;23;20211;-79
2023/01/04 07:35:26;;;;;;;4.93;4.53;;;;;;;1.29;100.00;100662.28;6245059;23;20208;-79
2023/01/04 07:37:52;;;;;;;5.23;4.50;;;;;;;1.37;100.00;100661.59;6245977;23;20219;-80
2023/01/04 07:40:24;;;;;;;5.90;4.30;;;;;;;1.47;100.00;100665.09;6245013;23;20208;-80
2023/01/04 07:42:58;;;;;;;5.13;4.63;;;;;;;1.61;100.00;100668.19;6245553;23;20360;-80
2023/01/04 07:45:25;;;;;;;6.87;5.30;;;;;;;1.65;100.00;100663.47;6219080;23;20215;-79
2023/01/04 07:47:52;;;;;;;5.90;5.10;;;;;;;1.72;100.00;100654.03;6218756;23;20719;-79
2023/01/04 07:50:18;;;;;;;7.00;5.17;;;;;;;1.81;100.00;100649.72;6245010;23;20212;-81
2023/01/04 07:52:45;;;;;;;8.27;5.93;;;;;;;1.76;100.00;100650.13;6244741;23;20215;-82
2023/01/04 07:55:12;;;;;;;23.57;13.20;;;;;;;1.88;100.00;100651.66;6245458;23;20209;-82
2023/01/04 07:57:38;;;;;;;15.87;9.83;;;;;;;1.94;100.00;100655.56;6245976;23;20211;-82
2023/01/04 08:00:06;;;;;;;19.10;10.67;;;;;;;1.98;100.00;100649.84;6246217;23;20209;-81
2023/01/04 08:02:37;;;;;;;17.00;11.33;;;;;;;2.06;100.00;100660.53;6246812;23;20204;-82
2023/01/04 08:05:05;;;;;;;19.23;12.23;;;;;;;2.14;100.00;100666.00;6247028;23;20239;-82
2023/01/04 08:07:32;;;;;;;31.07;19.97;;;;;;;2.16;100.00;100666.66;6248640;23;20644;-83
2023/01/04 08:09:59;;;;;;;18.70;13.90;;;;;;;2.19;100.00;100658.44;6247767;23;20279;-82
2023/01/04 08:12:25;;;;;;;6.70;6.00;;;;;;;2.30;100.00;100644.25;6220256;23;20521;-83
2023/01/04 08:14:52;;;;;;;8.13;5.50;;;;;;;2.42;100.00;100642.28;6247586;23;20216;-83
2023/01/04 08:17:18;;;;;;;5.70;5.10;;;;;;;2.48;100.00;100629.31;6247050;23;20215;-83
2023/01/04 08:19:45;;;;;;;5.60;5.00;;;;;;;2.56;100.00;100629.44;6247484;23;20204;-83
2023/01/04 08:22:12;;;;;;;6.03;5.47;;;;;;;2.61;100.00;100631.66;6253547;23;20209;-83
2023/01/04 08:24:39;;;;;;;6.40;5.80;;;;;;;2.62;100.00;100628.84;6249106;23;20211;-82
2023/01/04 08:27:07;;;;;;;6.27;5.67;;;;;;;2.71;100.00;100631.63;6247008;23;20201;-81
2023/01/04 08:29:33;;;;;;;6.43;5.83;;;;;;;2.78;100.00;100630.06;6246315;23;20288;-82
2023/01/04 08:32:01;;;;;;;6.53;5.83;;;;;;;2.88;100.00;100623.75;6245950;23;20209;-81
2023/01/04 08:34:28;;;;;;;6.00;5.33;;;;;;;2.96;100.00;100626.47;6245837;23;20259;-82
2023/01/04 08:36:55;;;;;;;7.07;5.83;;;;;;;3.06;100.00;100629.09;6249793;23;20208;-83
2023/01/04 08:39:22;;;;;;;6.27;5.67;;;;;;;3.09;100.00;100612.91;6246164;23;20208;-83
2023/01/04 08:41:52;;;;;;;7.50;5.83;;;;;;;3.18;100.00;100619.13;6246732;23;20283;-82
2023/01/04 08:44:28;;;;;;;6.23;5.40;;;;;;;3.27;100.00;100618.22;6245932;23;20201;-82
2023/01/04 08:46:54;;;;;;;7.60;5.60;;;;;;;3.36;100.00;100615.50;6218849;23;20200;-82
2023/01/04 08:49:22;;;;;;;6.40;5.77;;;;;;;3.41;100.00;100615.06;6245583;23;20712;-82
2023/01/04 08:51:49;;;;;;;6.00;5.30;;;;;;;3.47;100.00;100607.38;6246513;23;20709;-82
2023/01/04 08:54:16;;;;;;;5.60;5.10;;;;;;;3.55;100.00;100612.75;6245450;23;20596;-83
2023/01/04 08:56:43;;;;;;;6.83;5.50;;;;;;;3.65;100.00;100615.31;6219659;23;20205;-82
2023/01/04 08:59:11;;;;;;;7.57;5.87;;;;;;;3.70;100.00;100605.09;6245094;23;20605;-84
2023/01/04 09:01:39;;;;;;;6.10;5.50;;;;;;;3.86;100.00;100605.25;6219702;23;20205;-82
2023/01/04 09:04:06;;;;;;;6.57;5.37;;;;;;;3.94;100.00;100607.13;6244217;23;20237;-82
2023/01/04 09:06:33;;;;;;;5.37;4.87;;;;;;;4.08;100.00;100584.53;6245241;23;20283;-82
2023/01/04 09:09:00;;;;;;;6.03;4.80;;;;;;;4.09;100.00;100592.34;6243553;23;20243;-82
2023/01/04 09:11:27;;;;;;;5.27;4.80;;;;;;;4.17;100.00;100581.78;6245008;23;20205;-82
2023/01/04 09:13:55;;;;;;;5.73;4.90;;;;;;;4.24;100.00;100579.34;6219028;23;20200;-81
2023/01/04 09:16:32;;;;;;;6.53;5.20;;;;;;;4.39;100.00;100586.56;6220901;23;20279;-82
2023/01/04 09:18:58;;;;;;;5.87;5.27;;;;;;;4.54;100.00;100575.38;6245730;23;20208;-82
2023/01/04 09:21:25;;;;;;;5.73;5.23;;;;;;;4.60;100.00;100572.09;6246003;23;20205;-83
2023/01/04 09:23:52;;;;;;;5.70;4.63;;;;;;;4.65;100.00;100572.44;6245428;23;20201;-82
2023/01/04 09:26:21;;;;;;;6.80;5.03;;;;;;;4.73;100.00;100573.31;6217730;23;20725;-81
2023/01/04 09:28:52;;;;;;;5.83;4.57;;;;;;;4.84;100.00;100566.91;6217874;23;20204;-80
2023/01/04 09:31:21;;;;;;;5.67;4.20;;;;;;;4.90;100.00;100557.47;6243723;23;20295;-81
2023/01/04 09:33:48;;;;;;;5.03;4.53;;;;;;;4.99;100.00;100556.50;6217455;23;20262;-82
2023/01/04 09:36:34;;;;;;;5.23;4.07;;;;;;;5.08;100.00;100564.34;6242074;23;20232;-80
2023/01/04 09:39:01;;;;;;;5.03;4.50;;;;;;;5.16;100.00;100560.84;6241690;23;20730;-81
2023/01/04 09:41:34;;;;;;;6.50;4.67;;;;;;;5.21;100.00;100567.34;6191413;23;20205;-80
2023/01/04 09:44:04;;;;;;;5.13;4.63;;;;;;;5.32;100.00;100555.56;6217074;23;20205;-80
2023/01/04 09:46:36;;;;;;;4.70;4.30;;;;;;;5.40;100.00;100549.44;6216605;23;20208;-80
2023/01/04 09:49:10;;;;;;;5.20;4.70;;;;;;;5.43;100.00;100535.81;6218177;23;20557;-80
2023/01/04 09:51:37;;;;;;;5.67;4.30;;;;;;;5.52;100.00;100527.69;6244164;23;20186;-81
2023/01/04 09:54:14;;;;;;;4.97;4.20;;;;;;;5.58;100.00;100518.22;6216678;23;20201;-79
2023/01/04 09:56:47;;;;;;;5.00;4.50;;;;;;;5.65;100.00;100506.75;6243827;23;20209;-80
2023/01/04 09:59:15;;;;;;;5.80;4.90;;;;;;;5.81;100.00;100508.59;6218504;23;20287;-81
2023/01/04 10:01:48;;;;;;;5.90;5.40;;;;;;;5.96;100.00;100493.66;6245923;23;20280;-81
2023/01/04 10:04:24;;;;;;;5.07;4.57;;;;;;;6.14;100.00;100502.25;6218019;23;20721;-80
2023/01/04 10:06:51;;;;;;;5.43;4.93;;;;;;;6.20;100.00;100496.22;6192842;23;20208;-80
2023/01/04 10:09:18;;;;;;;5.30;4.90;;;;;;;6.33;100.00;100508.19;6217525;23;20215;-81
2023/01/04 10:11:55;;;;;;;7.93;6.30;;;;;;;6.39;100.00;100489.69;6243602;23;20215;-78
2023/01/04 10:14:47;;;;;;;7.83;6.50;;;;;;;6.51;100.00;100482.16;6243857;23;20239;-78
2023/01/04 10:17:26;;;;;;;6.33;5.80;;;;;;;6.70;100.00;100488.91;6243755;23;20662;-78
2023/01/04 10:20:50;;;;;;;7.53;6.73;;;;;;;6.85;100.00;100472.03;6242018;23;20255;-78
2023/01/04 10:23:57;;;;;;;6.90;6.20;;;;;;;6.99;100.00;100471.28;6243527;23;20247;-78
2023/01/04 10:26:33;;;;;;;6.40;5.80;;;;;;;7.08;100.00;100464.06;6242856;23;20580;-78
2023/01/04 10:29:23;;;;;;;6.87;6.20;;;;;;;7.19;100.00;100468.97;6218828;23;20216;-79
2023/01/04 10:31:56;;;;;;;8.97;7.83;;;;;;;7.29;100.00;100450.06;6246001;23;20204;-80
2023/01/04 10:34:32;;;;;;;10.07;8.20;;;;;;;7.45;100.00;100447.28;6194154;23;20204;-79
2023/01/04 10:37:05;;;;;;;8.67;6.80;;;;;;;7.62;100.00;100448.78;6219401;23;20229;-79
2023/01/04 10:39:34;;;;;;;7.03;6.17;;;;;;;7.70;100.00;100453.25;6219941;23;20231;-79
2023/01/04 10:42:30;;;;;;;7.07;5.83;;;;;;;7.81;100.00;100442.09;6247930;23;20203;-79
2023/01/04 10:45:26;;;;;;;6.03;5.40;;;;;;;7.87;100.00;100434.22;6246670;23;20238;-80
2023/01/04 10:48:04;;;;;;;5.67;5.00;;;;;;;7.97;100.00;100418.78;6246498;23;20212;-80
2023/01/04 10:50:56;;;;;;;5.60;5.10;;;;;;;8.11;100.00;100422.44;6246389;23;20656;-79
2023/01/04 10:53:48;;;;;;;5.30;4.80;;;;;;;8.24;100.00;100421.78;6233751;23;20209;-80
2023/01/04 10:56:24;;;;;;;4.30;3.90;;;;;;;8.24;100.00;100408.44;6219712;23;20239;-80
2023/01/04 10:59:23;;;;;;;4.27;3.87;;;;;;;8.35;100.00;100408.81;6221162;23;20200;-80
2023/01/04 11:01:54;;;;;;;4.60;4.20;;;;;;;8.46;100.00;100407.53;6247282;23;20649;-80
2023/01/04 11:04:28;;;;;;;4.60;4.13;;;;;;;8.50;100.00;100403.47;6220268;23;20215;-79
2023/01/04 11:06:58;;;;;;;4.57;4.18;;;;;;;8.61;100.00;100411.00;6170871;23;1190346;-80
2023/01/04 11:09:29;;;;;;;5.07;4.10;;;;;;;8.64;100.00;100410.63;6247437;23;20275;-80
2023/01/04 11:11:56;;;;;;;5.50;4.80;;;;;;;8.71;100.00;100406.19;6221174;23;20224;-80
2023/01/04 11:14:24;;;;;;;4.40;4.00;;;;;;;8.71;100.00;100397.34;6247633;23;20223;-80
2023/01/04 11:16:55;;;;;;;4.70;4.30;;;;;;;8.80;100.00;100397.03;6247311;23;20282;-80
2023/01/04 11:19:22;;;;;;;6.00;5.50;;;;;;;8.90;100.00;100394.06;6218604;23;20250;-79
2023/01/04 11:21:55;;;;;;;5.03;4.63;;;;;;;9.08;100.00;100385.59;6245401;23;20207;-79
2023/01/04 11:24:33;;;;;;;4.40;4.00;;;;;;;9.07;100.00;100392.78;6245810;23;20208;-79
2023/01/04 11:27:12;;;;;;;4.70;4.30;;;;;;;9.10;100.00;100376.34;6219490;23;20700;-80
2023/01/04 11:30:24;;;;;;;5.53;5.03;;;;;;;9.19;100.00;100363.69;6221210;23;20556;-80
2023/01/04 11:32:54;;;;;;;4.20;3.90;;;;;;;9.23;100.00;100348.91;6093586;23;20328;-78
2023/01/04 11:35:36;;;;;;;4.20;3.90;;;;;;;9.38;100.00;100357.66;6093925;23;20211;-79
2023/01/04 11:38:18;;;;;;;4.60;4.17;;;;;;;9.41;100.00;100346.59;6197861;23;20204;-79
2023/01/04 11:40:54;;;;;;;4.47;4.07;;;;;;;9.42;100.00;100347.41;6218623;23;20672;-79
2023/01/04 11:43:21;;;;;;;4.37;3.97;;;;;;;9.44;100.00;100334.66;6245785;23;20757;-79
2023/01/04 11:46:00;;;;;;;4.20;3.60;;;;;;;9.50;100.00;100342.75;6245454;23;20211;-79
2023/01/04 11:48:31;;;;;;;4.13;3.80;;;;;;;9.53;100.00;100339.66;6243775;23;20232;-79
2023/01/04 11:50:59;;;;;;;4.43;4.03;;;;;;;9.49;100.00;100334.91;6242776;23;20221;-79
2023/01/04 11:53:27;;;;;;;4.63;4.13;;;;;;;9.57;100.00;100327.53;6217732;23;20215;-79
2023/01/04 11:56:30;;;;;;;4.60;4.20;;;;;;;9.68;100.00;100331.53;6245237;23;20213;-79
2023/01/04 11:59:16;;;;;;;5.53;5.03;;;;;;;9.76;100.00;100330.53;6217761;23;20540;-79
2023/01/04 12:02:09;;;;;;;5.17;4.67;;;;;;;9.81;100.00;100328.94;6243732;23;20263;-79
2023/01/04 12:04:36;;;;;;;5.90;5.40;;;;;;;9.88;100.00;100312.91;6244195;23;20205;-79
2023/01/04 12:07:16;;;;;;;4.57;4.17;;;;;;;9.95;100.00;100314.59;6245107;23;20216;-79
2023/01/04 12:09:43;;;;;;;4.40;4.00;;;;;;;9.95;100.00;100303.06;6245193;23;20700;-79
2023/01/04 12:12:11;;;;;;;4.60;4.10;;;;;;;10.06;100.00;100305.16;6244992;23;20191;-79
2023/01/04 12:14:46;;;;;;;4.20;3.80;;;;;;;10.13;100.00;100297.97;6219342;23;20232;-79
2023/01/04 12:17:28;;;;;;;4.07;3.70;;;;;;;10.14;100.00;100296.97;6218636;23;20209;-79
2023/01/04 12:19:56;;;;;;;4.17;3.60;;;;;;;10.17;100.00;100293.94;6217897;23;20213;-79
2023/01/04 12:22:36;;;;;;;4.13;3.73;;;;;;;10.12;100.00;100281.06;6217821;23;20664;-79
2023/01/04 12:25:08;;;;;;;3.67;3.37;;;;;;;10.20;100.00;100284.66;6244712;23;20221;-78
2023/01/04 12:27:35;;;;;;;3.70;3.40;;;;;;;10.32;100.00;100283.84;6218089;23;20285;-79
2023/01/04 12:30:04;;;;;;;4.23;3.80;;;;;;;10.31;100.00;100266.13;6244948;23;20275;-79
2023/01/04 12:32:31;;;;;;;6.40;5.30;;;;;;;10.43;100.00;100255.66;6245024;23;20557;-78
2023/01/04 12:34:58;;;;;;;6.27;5.67;;;;;;;10.33;100.00;100255.22;6245064;23;20283;-79
2023/01/04 12:37:36;;;;;;;4.50;4.10;;;;;;;10.47;100.00;100251.53;6245240;23;20208;-79